Time;durP1;ratioP1;P1;durP2;ratioP2;P2;SDS_P1;SDS_P2;PMS_P1;PMS_P2;Temp;Humidity;BMP_temperature;BMP_pressure;BME280_temperature;BME280_humidity;BME280_pressure;Samples;Min_cycle;Max_cycle;Signal;HPM_P1;HPM_P2
2022/04/27 00:00:25;;;;;;;0.75;0.75;;;2.00;96.70;;;;;;5070546;28;20228;-69
2022/04/27 00:02:52;;;;;;;0.70;0.70;;;1.90;97.10;;;;;;5072862;28;20228;-69
2022/04/27 00:05:18;;;;;;;0.70;0.70;;;1.90;96.80;;;;;;5064090;28;20200;-69
2022/04/27 00:07:44;;;;;;;0.80;0.80;;;1.90;96.60;;;;;;5073021;28;20626;-68
2022/04/27 00:10:10;;;;;;;0.88;0.88;;;1.80;96.90;;;;;;5071553;28;20204;-68
2022/04/27 00:12:37;;;;;;;0.70;0.70;;;1.80;96.90;;;;;;5072888;28;20561;-68
2022/04/27 00:15:07;;;;;;;0.80;0.80;;;1.80;96.60;;;;;;5072382;28;20192;-68
2022/04/27 00:17:33;;;;;;;0.80;0.80;;;1.90;96.30;;;;;;5072710;28;20213;-68
2022/04/27 00:19:59;;;;;;;0.93;0.93;;;1.80;96.50;;;;;;5072526;28;20659;-68
2022/04/27 00:22:25;;;;;;;0.80;0.80;;;1.80;96.60;;;;;;5071982;28;20203;-68
2022/04/27 00:24:50;;;;;;;0.70;0.70;;;1.80;96.10;;;;;;5072764;28;20314;-68
2022/04/27 00:27:16;;;;;;;0.60;0.60;;;1.80;95.80;;;;;;5071615;28;20536;-69
2022/04/27 00:29:42;;;;;;;0.60;0.60;;;1.80;95.70;;;;;;5072798;28;20276;-68
2022/04/27 00:32:08;;;;;;;0.80;0.80;;;1.90;95.60;;;;;;5072856;28;20193;-69
2022/04/27 00:34:34;;;;;;;0.70;0.70;;;1.80;96.20;;;;;;5072875;28;20200;-69
2022/04/27 00:36:59;;;;;;;0.60;0.60;;;1.80;96.30;;;;;;5064460;28;20197;-68
2022/04/27 00:39:25;;;;;;;0.70;0.70;;;1.70;96.40;;;;;;5054139;28;20217;-69
2022/04/27 00:42:00;;;;;;;0.80;0.80;;;1.70;96.40;;;;;;5078053;28;20267;-69
2022/04/27 00:44:30;;;;;;;0.70;0.70;;;1.60;97.00;;;;;;5074696;28;20662;-69
2022/04/27 00:46:56;;;;;;;0.80;0.80;;;1.50;97.50;;;;;;5074810;28;20192;-68
2022/04/27 00:49:22;;;;;;;0.70;0.70;;;1.50;96.90;;;;;;5092675;28;20192;-69
2022/04/27 00:51:49;;;;;;;0.80;0.80;;;1.60;97.00;;;;;;5092567;28;20187;-69
2022/04/27 00:54:16;;;;;;;0.60;0.60;;;1.60;97.00;;;;;;5091697;28;20234;-68
2022/04/27 00:56:42;;;;;;;0.80;0.80;;;1.60;97.10;;;;;;5092586;28;20223;-68
2022/04/27 00:59:09;;;;;;;0.70;0.70;;;1.60;97.70;;;;;;5091166;28;20702;-68
2022/04/27 01:01:35;;;;;;;0.70;0.70;;;1.60;98.00;;;;;;5075050;28;20201;-68
2022/04/27 01:07:24;;;;;;;0.80;0.80;;;1.50;98.80;;;;;;5072341;28;20250;-69
2022/04/27 01:12:23;;;;;;;0.80;0.80;;;1.40;99.70;;;;;;5025549;28;20696;-83
2022/04/27 01:18:09;;;;;;;0.70;0.70;;;1.30;99.10;;;;;;1025840;23;20510;-85
2022/04/27 01:21:13;;;;;;;0.80;0.80;;;1.40;98.50;;;;;;5067744;28;20233;-85
2022/04/27 01:24:24;;;;;;;0.80;0.80;;;1.30;99.30;;;;;;5065166;28;20212;-87
2022/04/27 01:27:27;;;;;;;0.60;0.60;;;1.20;99.40;;;;;;5067343;28;20212;-85
2022/04/27 01:30:30;;;;;;;0.75;0.75;;;1.10;99.00;;;;;;5074625;28;20201;-84
2022/04/27 01:33:39;;;;;;;0.60;0.60;;;1.10;99.00;;;;;;5059611;28;20220;-83
2022/04/27 01:36:43;;;;;;;0.80;0.80;;;0.90;99.90;;;;;;5074075;28;20201;-85
2022/04/27 01:39:48;;;;;;;0.70;0.70;;;0.80;99.90;;;;;;5074053;28;20687;-85
2022/04/27 01:42:51;;;;;;;0.60;0.60;;;0.60;99.90;;;;;;5073614;28;20197;-85
2022/04/27 01:45:54;;;;;;;0.80;0.80;;;0.60;99.90;;;;;;5073391;28;20666;-84
2022/04/27 01:48:58;;;;;;;0.70;0.70;;;0.40;99.90;;;;;;5071759;28;20255;-84
2022/04/27 01:55:23;;;;;;;0.80;0.80;;;0.10;99.90;;;;;;5056885;28;20339;-84
2022/04/27 01:58:26;;;;;;;0.75;0.75;;;-0.10;99.90;;;;;;5071738;28;20224;-83
2022/04/27 02:01:30;;;;;;;0.70;0.70;;;-0.30;99.90;;;;;;5069639;28;20856;-83
2022/04/27 02:04:33;;;;;;;0.75;0.75;;;-0.30;99.90;;;;;;5055310;28;20725;-84
2022/04/27 02:07:37;;;;;;;0.65;0.65;;;-0.30;99.90;;;;;;5055699;28;20615;-84
2022/04/27 02:10:40;;;;;;;0.70;0.70;;;-0.30;99.90;;;;;;5055615;28;20229;-82
2022/04/27 02:13:43;;;;;;;0.70;0.70;;;-0.40;99.90;;;;;;5063460;28;20213;-82
2022/04/27 02:16:46;;;;;;;0.80;0.80;;;-0.30;99.90;;;;;;5056980;28;20255;-83
2022/04/27 02:19:50;;;;;;;0.63;0.63;;;-0.30;99.90;;;;;;5045957;28;20234;-81
2022/04/27 02:22:53;;;;;;;0.70;0.70;;;-0.40;99.90;;;;;;5055057;28;20632;-81
2022/04/27 02:26:00;;;;;;;0.70;0.70;;;-0.50;99.90;;;;;;5054990;28;20239;-82
2022/04/27 02:29:04;;;;;;;0.70;0.70;;;-0.50;99.90;;;;;;5039521;28;20213;-85
2022/04/27 02:32:08;;;;;;;0.60;0.60;;;-0.50;99.90;;;;;;5037160;28;20198;-80
2022/04/27 02:35:11;;;;;;;0.70;0.70;;;-0.40;99.90;;;;;;5036180;28;20743;-85
2022/04/27 02:38:15;;;;;;;0.80;0.80;;;-0.30;99.90;;;;;;5033022;28;20206;-85
2022/04/27 02:41:18;;;;;;;0.70;0.70;;;-0.10;99.90;;;;;;5028645;28;20214;-84
2022/04/27 02:44:28;;;;;;;0.70;0.70;;;0.10;99.90;;;;;;5035813;28;20562;-83
2022/04/27 02:47:31;;;;;;;0.70;0.70;;;0.20;99.90;;;;;;5036091;28;20225;-84
2022/04/27 02:53:56;;;;;;;0.70;0.70;;;0.30;99.90;;;;;;5038330;28;20193;-83
2022/04/27 02:56:59;;;;;;;0.63;0.63;;;0.50;99.90;;;;;;5037529;28;20206;-82
2022/04/27 03:00:02;;;;;;;0.70;0.70;;;0.50;99.90;;;;;;5036550;28;20221;-81
2022/04/27 03:03:09;;;;;;;0.65;0.65;;;0.50;99.90;;;;;;5019714;28;20202;-81
2022/04/27 03:06:12;;;;;;;0.80;0.80;;;0.40;99.90;;;;;;5013997;28;20688;-81
2022/04/27 03:09:15;;;;;;;0.70;0.70;;;0.50;99.90;;;;;;5010682;28;20304;-83
2022/04/27 03:12:19;;;;;;;0.60;0.60;;;0.50;99.90;;;;;;5030261;28;20232;-83
2022/04/27 03:15:22;;;;;;;0.90;0.90;;;0.50;99.90;;;;;;5033897;28;20209;-81
2022/04/27 03:18:26;;;;;;;0.70;0.70;;;0.50;99.90;;;;;;5033271;28;20679;-81
2022/04/27 03:21:32;;;;;;;0.65;0.65;;;0.50;99.90;;;;;;5013986;28;20207;-80
2022/04/27 03:24:35;;;;;;;0.63;0.63;;;0.50;99.90;;;;;;4997656;28;20207;-80
2022/04/27 03:27:38;;;;;;;0.80;0.80;;;0.50;99.90;;;;;;5014652;28;20199;-81
2022/04/27 03:30:42;;;;;;;0.70;0.70;;;0.60;99.90;;;;;;5036101;28;20675;-81
2022/04/27 03:33:45;;;;;;;0.70;0.70;;;0.60;99.90;;;;;;5053101;28;20278;-79
2022/04/27 03:36:48;;;;;;;0.75;0.75;;;0.60;99.90;;;;;;5054308;28;20208;-82
2022/04/27 03:39:52;;;;;;;0.75;0.75;;;0.60;99.90;;;;;;5041834;28;20268;-80
2022/04/27 03:42:55;;;;;;;0.70;0.70;;;0.70;99.90;;;;;;5035339;28;20206;-81
2022/04/27 03:45:59;;;;;;;0.70;0.70;;;0.80;99.90;;;;;;5036180;28;20221;-81
2022/04/27 03:49:02;;;;;;;0.70;0.70;;;0.90;99.90;;;;;;5035601;28;20237;-80
2022/04/27 03:52:05;;;;;;;0.70;0.70;;;0.90;99.90;;;;;;5036442;28;20213;-82
2022/04/27 03:55:08;;;;;;;0.80;0.80;;;0.90;99.90;;;;;;5036019;28;20225;-81
2022/04/27 03:58:12;;;;;;;0.60;0.60;;;0.90;99.90;;;;;;5036358;28;20220;-82
2022/04/27 04:01:15;;;;;;;0.80;0.80;;;1.10;99.90;;;;;;5036237;28;20209;-81
2022/04/27 04:04:18;;;;;;;0.70;0.70;;;1.10;99.90;;;;;;5037155;28;20201;-80
2022/04/27 04:07:21;;;;;;;0.70;0.70;;;1.10;99.90;;;;;;5017128;28;20230;-82
2022/04/27 04:10:24;;;;;;;0.70;0.70;;;1.10;99.90;;;;;;5035052;28;20696;-81
2022/04/27 04:13:28;;;;;;;0.70;0.70;;;1.20;99.90;;;;;;5035961;28;20266;-82
2022/04/27 04:16:31;;;;;;;0.60;0.60;;;1.20;99.90;;;;;;5035254;28;20202;-83
2022/04/27 04:19:35;;;;;;;0.77;0.77;;;1.20;99.90;;;;;;5025492;28;20600;-83
2022/04/27 04:22:38;;;;;;;0.70;0.70;;;1.20;99.90;;;;;;5018930;28;20225;-82
2022/04/27 04:29:03;;;;;;;1.17;1.10;;;1.40;99.90;;;;;;5034674;28;20237;-82
2022/04/27 04:32:07;;;;;;;0.85;0.85;;;1.40;99.90;;;;;;5016549;28;20202;-82
2022/04/27 04:35:10;;;;;;;0.65;0.65;;;1.40;99.90;;;;;;5017157;28;20638;-82
2022/04/27 04:38:13;;;;;;;0.90;0.90;;;1.50;99.90;;;;;;5016051;28;20213;-82
2022/04/27 04:41:16;;;;;;;0.70;0.70;;;1.60;99.90;;;;;;5017244;28;20205;-82
2022/04/27 04:44:19;;;;;;;0.80;0.80;;;1.70;99.90;;;;;;5035856;28;20198;-81
2022/04/27 04:47:22;;;;;;;0.70;0.70;;;1.70;99.90;;;;;;5018372;28;20244;-81
2022/04/27 04:50:25;;;;;;;0.90;0.90;;;1.80;99.90;;;;;;5018312;28;20209;-81
2022/04/27 04:53:36;;;;;;;0.70;0.70;;;1.80;99.90;;;;;;5017403;28;20217;-86
2022/04/27 04:56:42;;;;;;;0.70;0.70;;;1.90;99.90;;;;;;5035861;28;20197;-86
2022/04/27 04:59:48;;;;;;;0.73;0.73;;;1.90;99.90;;;;;;5036059;28;20231;-85
2022/04/27 05:02:57;;;;;;;0.80;0.80;;;2.00;99.90;;;;;;5031350;28;20194;-85
2022/04/27 05:09:39;;;;;;;0.70;0.70;;;2.20;99.90;;;;;;4995838;28;20198;-81
2022/04/27 05:12:42;;;;;;;0.80;0.80;;;2.30;99.90;;;;;;5017282;28;20747;-82
2022/04/27 05:15:45;;;;;;;0.82;0.82;;;2.40;99.90;;;;;;5016660;28;20514;-81
2022/04/27 05:18:48;;;;;;;0.60;0.60;;;2.50;99.90;;;;;;5019166;28;20238;-82
2022/04/27 05:21:57;;;;;;;0.70;0.70;;;2.50;99.90;;;;;;5049200;28;20202;-81
2022/04/27 05:25:14;;;;;;;0.60;0.60;;;2.50;99.90;;;;;;5089538;28;20221;-82
2022/04/27 05:28:20;;;;;;;0.80;0.80;;;2.50;99.90;;;;;;5058582;28;21223;-81
2022/04/27 05:34:45;;;;;;;0.75;0.75;;;2.60;99.90;;;;;;5079768;28;20234;-82
2022/04/27 05:37:49;;;;;;;0.70;0.70;;;2.70;99.90;;;;;;5062411;28;20285;-82
2022/04/27 05:40:52;;;;;;;0.80;0.80;;;2.90;99.90;;;;;;5062049;28;20621;-82
2022/04/27 05:43:56;;;;;;;0.80;0.80;;;3.20;99.90;;;;;;5062732;28;20617;-82
2022/04/27 05:46:59;;;;;;;1.85;1.15;;;3.70;99.90;;;;;;5062146;28;20608;-82
2022/04/27 05:50:04;;;;;;;0.70;0.70;;;4.10;99.90;;;;;;5079171;28;20198;-81
2022/04/27 05:53:10;;;;;;;0.70;0.70;;;4.40;99.40;;;;;;5061873;28;20565;-81
2022/04/27 05:56:15;;;;;;;0.80;0.80;;;4.60;98.10;;;;;;5061863;28;20192;-82
2022/04/27 05:59:19;;;;;;;0.80;0.80;;;4.80;97.50;;;;;;5072576;28;20240;-81
2022/04/27 06:02:40;;;;;;;0.80;0.80;;;5.00;96.60;;;;;;5059977;28;20532;-80
2022/04/27 06:05:43;;;;;;;0.70;0.70;;;5.00;96.20;;;;;;5075492;28;20201;-82
2022/04/27 06:08:47;;;;;;;0.70;0.70;;;5.10;96.10;;;;;;5078556;28;20266;-81
2022/04/27 06:11:57;;;;;;;1.45;1.35;;;5.00;95.40;;;;;;5078432;28;20200;-81
2022/04/27 06:15:07;;;;;;;0.70;0.70;;;4.80;96.00;;;;;;5059838;28;20604;-79
2022/04/27 06:18:17;;;;;;;0.70;0.70;;;4.80;95.70;;;;;;5060451;28;20375;-82
2022/04/27 06:21:27;;;;;;;0.70;0.70;;;4.80;94.90;;;;;;5036181;28;20250;-81
2022/04/27 06:24:39;;;;;;;0.60;0.60;;;4.70;95.50;;;;;;5036359;28;20209;-80
2022/04/27 06:27:43;;;;;;;0.70;0.70;;;4.70;95.60;;;;;;5034884;28;20672;-81
2022/04/27 06:30:46;;;;;;;0.70;0.70;;;4.60;96.10;;;;;;5036519;28;20206;-80
2022/04/27 06:33:49;;;;;;;0.80;0.80;;;4.80;95.50;;;;;;5019383;28;20296;-79
2022/04/27 06:36:52;;;;;;;0.70;0.70;;;4.80;95.50;;;;;;5036535;28;20284;-80
2022/04/27 06:40:02;;;;;;;0.80;0.80;;;4.90;95.50;;;;;;5020223;28;20315;-82
2022/04/27 06:43:11;;;;;;;0.70;0.70;;;5.10;94.30;;;;;;5019738;28;20228;-81
2022/04/27 06:46:15;;;;;;;0.70;0.70;;;5.40;94.90;;;;;;5018504;28;20560;-80
2022/04/27 06:49:18;;;;;;;0.65;0.65;;;5.50;94.00;;;;;;5018495;28;20297;-81
2022/04/27 06:52:21;;;;;;;0.65;0.65;;;5.60;93.80;;;;;;5019178;28;20613;-80
2022/04/27 06:55:24;;;;;;;0.80;0.80;;;5.70;94.00;;;;;;5044070;28;20208;-81
2022/04/27 06:58:31;;;;;;;0.90;0.90;;;5.90;93.70;;;;;;5040075;28;20229;-81
2022/04/27 07:01:35;;;;;;;0.70;0.70;;;6.00;93.50;;;;;;5027094;28;20281;-81
2022/04/27 07:04:40;;;;;;;0.70;0.70;;;6.10;92.90;;;;;;5037957;28;20209;-80
2022/04/27 07:07:44;;;;;;;0.70;0.70;;;6.00;91.80;;;;;;5052472;28;20621;-80
2022/04/27 07:10:49;;;;;;;0.70;0.70;;;5.90;92.40;;;;;;5052642;28;20229;-82
2022/04/27 07:13:54;;;;;;;1.27;1.17;;;5.80;92.40;;;;;;5055700;28;20236;-82
2022/04/27 07:16:57;;;;;;;0.70;0.70;;;5.70;91.70;;;;;;5055361;28;20201;-81
2022/04/27 07:20:00;;;;;;;0.70;0.70;;;5.60;93.10;;;;;;5058147;28;20232;-81
2022/04/27 07:23:06;;;;;;;0.70;0.70;;;5.60;92.20;;;;;;5075995;28;20294;-81
2022/04/27 07:26:09;;;;;;;0.70;0.70;;;5.70;92.50;;;;;;5075389;28;20284;-81
2022/04/27 07:29:15;;;;;;;0.70;0.70;;;5.70;91.60;;;;;;5047428;28;20739;-80
2022/04/27 07:32:25;;;;;;;0.70;0.70;;;5.70;91.90;;;;;;5051187;28;20649;-81
2022/04/27 07:35:28;;;;;;;0.70;0.70;;;5.60;91.10;;;;;;5053292;28;20210;-80
2022/04/27 07:38:39;;;;;;;0.70;0.70;;;5.60;91.70;;;;;;5052914;28;20245;-81
2022/04/27 07:41:45;;;;;;;0.60;0.60;;;5.60;92.60;;;;;;5053193;28;20671;-81
2022/04/27 07:44:48;;;;;;;1.10;1.00;;;6.00;92.90;;;;;;5034548;28;20604;-79
2022/04/27 07:47:51;;;;;;;0.70;0.70;;;6.10;92.10;;;;;;5036096;28;20205;-80
2022/04/27 07:50:54;;;;;;;0.70;0.70;;;6.20;92.70;;;;;;5051834;28;20205;-81
2022/04/27 07:54:01;;;;;;;0.70;0.70;;;6.50;92.40;;;;;;5054992;28;20746;-82
2022/04/27 07:57:05;;;;;;;0.70;0.70;;;6.60;92.00;;;;;;5053966;28;20232;-81
2022/04/27 08:00:08;;;;;;;0.70;0.70;;;6.60;91.00;;;;;;5055146;28;20217;-82
2022/04/27 08:03:11;;;;;;;0.70;0.70;;;6.50;90.60;;;;;;5071739;28;20575;-80
2022/04/27 08:06:14;;;;;;;0.70;0.70;;;6.70;92.00;;;;;;5070131;28;20208;-79
2022/04/27 08:09:18;;;;;;;0.60;0.60;;;7.20;92.20;;;;;;5070154;28;20300;-80
2022/04/27 08:12:21;;;;;;;0.60;0.60;;;7.50;90.20;;;;;;5068534;28;20266;-80
2022/04/27 08:15:25;;;;;;;0.68;0.68;;;7.50;90.00;;;;;;5068290;28;20549;-81
2022/04/27 08:18:28;;;;;;;0.70;0.70;;;7.70;90.80;;;;;;5068518;28;20694;-81
2022/04/27 08:21:31;;;;;;;0.60;0.60;;;8.00;87.80;;;;;;5032426;28;20209;-79
2022/04/27 08:24:40;;;;;;;0.70;0.70;;;8.10;88.20;;;;;;5045041;28;20274;-80
2022/04/27 08:27:46;;;;;;;0.60;0.60;;;8.70;87.60;;;;;;5036773;28;20213;-81
2022/04/27 08:30:49;;;;;;;0.60;0.60;;;9.00;84.30;;;;;;5037370;28;20201;-81
2022/04/27 08:33:53;;;;;;;0.60;0.60;;;9.10;83.90;;;;;;5036253;28;20212;-83
2022/04/27 08:36:56;;;;;;;0.60;0.60;;;9.20;80.90;;;;;;5037225;28;20264;-81
2022/04/27 08:40:01;;;;;;;0.60;0.60;;;9.70;83.30;;;;;;5035831;28;20262;-82
2022/04/27 08:43:04;;;;;;;0.60;0.60;;;10.00;81.10;;;;;;5052645;28;20663;-80
2022/04/27 08:46:07;;;;;;;2.25;1.50;;;10.20;81.30;;;;;;5050612;28;20201;-79
2022/04/27 08:49:10;;;;;;;0.60;0.60;;;10.20;79.50;;;;;;5032974;28;20201;-80
2022/04/27 08:52:14;;;;;;;0.50;0.50;;;10.40;77.30;;;;;;5033796;28;20296;-80
2022/04/27 08:55:19;;;;;;;0.60;0.60;;;10.40;77.80;;;;;;5033654;28;20202;-80
2022/04/27 08:58:25;;;;;;;0.60;0.60;;;10.30;79.60;;;;;;5032970;28;20209;-80
2022/04/27 09:01:28;;;;;;;0.55;0.55;;;10.20;78.30;;;;;;5032643;28;20204;-80
2022/04/27 09:04:32;;;;;;;0.60;0.57;;;10.20;76.80;;;;;;5016377;28;20201;-80
2022/04/27 09:07:35;;;;;;;0.50;0.50;;;10.20;75.80;;;;;;5016060;28;20224;-80
2022/04/27 09:10:38;;;;;;;0.60;0.60;;;10.20;72.60;;;;;;5016796;28;20209;-80
2022/04/27 09:13:41;;;;;;;0.60;0.60;;;10.20;74.50;;;;;;5016159;28;20212;-81
2022/04/27 09:23:32;;;;;;;0.50;0.50;;;10.00;72.60;;;;;;5073595;28;20203;-80
2022/04/27 09:26:35;;;;;;;0.60;0.60;;;10.00;74.10;;;;;;5055462;28;20201;-80
2022/04/27 09:29:39;;;;;;;0.57;0.57;;;10.00;74.70;;;;;;5055510;28;20215;-79
2022/04/27 09:32:42;;;;;;;0.60;0.60;;;9.70;76.10;;;;;;5054992;28;20215;-80
2022/04/27 09:35:45;;;;;;;0.60;0.60;;;10.00;75.60;;;;;;5056703;28;20245;-81
2022/04/27 09:38:49;;;;;;;0.60;0.60;;;10.10;73.10;;;;;;5055231;28;20243;-81
2022/04/27 09:41:52;;;;;;;0.60;0.60;;;10.10;74.30;;;;;;5055204;28;20208;-80
2022/04/27 09:45:00;;;;;;;0.60;0.60;;;9.90;71.40;;;;;;5070907;28;20200;-80
2022/04/27 09:48:08;;;;;;;0.60;0.60;;;9.60;73.50;;;;;;5055578;28;20196;-81
2022/04/27 09:51:11;;;;;;;0.55;0.55;;;10.00;75.40;;;;;;5058759;28;20236;-81
2022/04/27 09:54:14;;;;;;;0.60;0.60;;;10.30;68.20;;;;;;5058634;28;20195;-79
2022/04/27 09:57:17;;;;;;;0.70;0.70;;;9.80;71.30;;;;;;5075933;28;20568;-82
2022/04/27 10:00:20;;;;;;;0.60;0.60;;;9.70;72.70;;;;;;5057864;28;20556;-80
2022/04/27 10:03:23;;;;;;;0.50;0.50;;;9.60;72.40;;;;;;5073969;28;20200;-80
2022/04/27 10:06:27;;;;;;;0.60;0.60;;;9.50;72.30;;;;;;5075291;28;20218;-78
2022/04/27 10:09:31;;;;;;;3.65;1.45;;;9.70;74.20;;;;;;5075887;28;20205;-84
2022/04/27 10:12:39;;;;;;;0.75;0.75;;;10.00;74.40;;;;;;5075508;28;20197;-83
2022/04/27 10:15:44;;;;;;;0.60;0.60;;;10.20;71.50;;;;;;5075239;28;20679;-83
2022/04/27 10:18:53;;;;;;;0.60;0.60;;;10.00;71.60;;;;;;5058776;28;20682;-84
2022/04/27 10:21:56;;;;;;;0.60;0.60;;;9.60;72.10;;;;;;5055594;28;20225;-81
2022/04/27 10:25:01;;;;;;;0.60;0.60;;;9.30;70.30;;;;;;5054275;28;20225;-81
2022/04/27 10:28:04;;;;;;;0.60;0.60;;;9.10;71.80;;;;;;5054045;28;20198;-81
2022/04/27 10:31:08;;;;;;;0.57;0.57;;;9.40;73.00;;;;;;5053724;28;20351;-78
2022/04/27 10:34:11;;;;;;;0.68;0.68;;;9.10;74.90;;;;;;5053451;28;20193;-79
2022/04/27 10:37:15;;;;;;;0.60;0.60;;;9.10;76.10;;;;;;5053478;28;20407;-79
2022/04/27 10:40:18;;;;;;;0.60;0.60;;;9.10;74.20;;;;;;5042472;28;20224;-80
2022/04/27 10:43:21;;;;;;;0.60;0.60;;;9.40;76.60;;;;;;5033479;28;20656;-79
2022/04/27 10:46:25;;;;;;;0.50;0.50;;;9.70;75.70;;;;;;5034763;28;20206;-79
2022/04/27 10:49:28;;;;;;;0.60;0.60;;;9.70;74.30;;;;;;5019315;28;20198;-79
2022/04/27 10:52:32;;;;;;;0.60;0.60;;;9.90;76.90;;;;;;5018701;28;20657;-80
2022/04/27 10:55:41;;;;;;;0.70;0.70;;;10.10;76.00;;;;;;5018184;28;20731;-79
2022/04/27 10:58:45;;;;;;;0.60;0.60;;;9.90;74.70;;;;;;5037705;28;20217;-80
2022/04/27 11:01:48;;;;;;;0.60;0.60;;;9.60;74.10;;;;;;5024201;28;20213;-81
2022/04/27 11:04:52;;;;;;;0.60;0.60;;;9.20;77.30;;;;;;5035096;28;20198;-80
2022/04/27 11:07:55;;;;;;;0.55;0.55;;;9.10;78.40;;;;;;5035305;28;20716;-81
2022/04/27 11:10:58;;;;;;;0.60;0.60;;;9.10;77.80;;;;;;5034031;28;20570;-81
2022/04/27 11:14:02;;;;;;;0.60;0.60;;;9.00;76.90;;;;;;5035492;28;20209;-80
2022/04/27 11:17:06;;;;;;;0.60;0.60;;;8.80;78.50;;;;;;5035710;28;20614;-79
2022/04/27 11:20:09;;;;;;;0.60;0.60;;;8.80;77.10;;;;;;5034412;28;20221;-81
2022/04/27 11:23:13;;;;;;;0.60;0.60;;;8.90;78.80;;;;;;5033580;28;20202;-80
2022/04/27 11:26:22;;;;;;;0.60;0.60;;;9.00;77.80;;;;;;5033202;28;20214;-81
2022/04/27 11:29:25;;;;;;;0.68;0.68;;;9.00;79.40;;;;;;5034678;28;20229;-79
2022/04/27 11:32:28;;;;;;;0.60;0.60;;;9.20;78.30;;;;;;5034401;28;20214;-81
2022/04/27 11:35:32;;;;;;;0.60;0.60;;;9.40;79.50;;;;;;5024132;28;20285;-82
2022/04/27 11:38:38;;;;;;;0.60;0.60;;;9.60;77.30;;;;;;5034209;28;20654;-81
2022/04/27 11:41:41;;;;;;;0.60;0.60;;;9.40;78.00;;;;;;5034423;28;20201;-81
2022/04/27 11:44:44;;;;;;;0.60;0.60;;;9.50;78.70;;;;;;5033717;28;20214;-80
2022/04/27 11:47:47;;;;;;;0.60;0.60;;;9.60;78.00;;;;;;5033201;28;20247;-83
2022/04/27 11:50:50;;;;;;;0.60;0.60;;;9.50;77.30;;;;;;5034081;28;20198;-81
2022/04/27 11:53:54;;;;;;;0.60;0.60;;;9.20;79.50;;;;;;5043702;28;20255;-81
2022/04/27 11:56:57;;;;;;;0.50;0.50;;;9.30;78.30;;;;;;5052658;28;20741;-81
2022/04/27 12:00:02;;;;;;;0.50;0.50;;;9.40;77.40;;;;;;5052916;28;20684;-79
2022/04/27 12:03:09;;;;;;;0.50;0.50;;;9.30;77.20;;;;;;5029498;28;20194;-80
2022/04/27 12:06:12;;;;;;;0.60;0.60;;;9.60;78.20;;;;;;5014667;28;20213;-79
2022/04/27 12:09:16;;;;;;;0.50;0.50;;;9.80;79.50;;;;;;4996829;28;20202;-80
2022/04/27 12:12:19;;;;;;;0.63;0.63;;;10.00;76.40;;;;;;5000882;28;20297;-80
2022/04/27 12:15:22;;;;;;;0.52;0.52;;;9.90;77.80;;;;;;5032963;28;20253;-81
2022/04/27 12:18:28;;;;;;;0.50;0.50;;;9.60;76.60;;;;;;5034282;28;20679;-81
2022/04/27 12:21:32;;;;;;;0.50;0.50;;;9.70;78.10;;;;;;5050177;28;20263;-81
2022/04/27 12:24:36;;;;;;;0.60;0.60;;;9.60;77.10;;;;;;5069755;28;20656;-81
2022/04/27 12:27:39;;;;;;;0.50;0.50;;;9.60;79.50;;;;;;5069906;28;20229;-80
2022/04/27 12:31:01;;;;;;;0.60;0.60;;;9.80;78.60;;;;;;5067572;28;20301;-80
2022/04/27 12:37:29;;;;;;;1.05;0.95;;;10.00;77.10;;;;;;5070658;28;20212;-82
2022/04/27 12:37:31;;;;;;;0.60;0.60;;;10.20;79.20;;;;;;5054514;28;20209;-81
2022/04/27 12:40:34;;;;;;;0.60;0.60;;;10.40;74.90;;;;;;5069373;28;20221;-80
2022/04/27 12:43:37;;;;;;;0.60;0.60;;;10.50;77.20;;;;;;5053808;28;20663;-81
2022/04/27 12:46:41;;;;;;;0.50;0.50;;;10.90;77.60;;;;;;5070108;28;20609;-80
2022/04/27 12:49:44;;;;;;;0.52;0.52;;;11.50;74.80;;;;;;5070305;28;20212;-81
2022/04/27 12:52:47;;;;;;;0.55;0.55;;;11.60;74.90;;;;;;5053696;28;20212;-82
2022/04/27 12:55:51;;;;;;;0.57;0.57;;;11.70;75.00;;;;;;5049442;28;20201;-81
2022/04/27 12:58:54;;;;;;;0.60;0.60;;;11.30;71.90;;;;;;5056837;28;20690;-81
2022/04/27 13:01:57;;;;;;;0.70;0.70;;;10.60;73.40;;;;;;5056425;28;20222;-82
2022/04/27 13:05:01;;;;;;;0.50;0.50;;;10.20;76.70;;;;;;5073406;28;20239;-81
2022/04/27 13:08:05;;;;;;;0.50;0.50;;;10.10;77.70;;;;;;5072995;28;20207;-81
2022/04/27 13:14:31;;;;;;;0.57;0.57;;;9.50;79.30;;;;;;5073184;28;20258;-79
2022/04/27 13:17:34;;;;;;;0.60;0.60;;;9.10;79.40;;;;;;5072088;28;20208;-80
2022/04/27 13:20:38;;;;;;;0.60;0.60;;;9.40;80.80;;;;;;5071929;28;20220;-80
2022/04/27 13:23:41;;;;;;;0.70;0.70;;;10.10;79.70;;;;;;5076404;28;20197;-80
2022/04/27 13:26:45;;;;;;;0.60;0.60;;;10.20;76.70;;;;;;5075235;28;20198;-80
2022/04/27 13:29:48;;;;;;;0.60;0.60;;;9.80;77.80;;;;;;5056636;28;20722;-81
2022/04/27 13:32:53;;;;;;;0.60;0.60;;;9.40;78.80;;;;;;5059687;28;20212;-81
2022/04/27 13:35:56;;;;;;;0.68;0.68;;;9.10;80.10;;;;;;5058040;28;20201;-82
2022/04/27 13:39:17;;;;;;;0.60;0.60;;;9.30;83.00;;;;;;5056450;28;20557;-82
2022/04/27 13:42:27;;;;;;;0.60;0.60;;;9.60;80.10;;;;;;5058763;28;20193;-82
2022/04/27 13:45:31;;;;;;;0.60;0.60;;;9.80;80.60;;;;;;5058988;28;20672;-82
2022/04/27 13:48:34;;;;;;;0.60;0.60;;;9.90;80.60;;;;;;5058403;28;20235;-82
2022/04/27 13:51:37;;;;;;;0.65;0.65;;;10.00;80.00;;;;;;5059343;28;20239;-82
2022/04/27 13:54:40;;;;;;;0.55;0.55;;;10.10;79.90;;;;;;5058046;28;20213;-82
2022/04/27 13:57:44;;;;;;;0.55;0.55;;;10.20;79.50;;;;;;5057252;28;20201;-81
2022/04/27 14:00:48;;;;;;;0.60;0.60;;;10.40;79.50;;;;;;5062443;28;20219;-82
2022/04/27 14:03:52;;;;;;;0.70;0.70;;;10.00;80.10;;;;;;5077669;28;20291;-82
2022/04/27 14:06:55;;;;;;;0.50;0.50;;;9.70;80.00;;;;;;5076728;28;20224;-83
2022/04/27 14:09:59;;;;;;;0.60;0.60;;;9.80;81.10;;;;;;5075907;28;20204;-83
2022/04/27 14:13:13;;;;;;;0.60;0.60;;;10.00;81.80;;;;;;5059524;28;20698;-82
2022/04/27 14:19:39;;;;;;;0.60;0.60;;;9.90;81.40;;;;;;5077787;28;20592;-82
2022/04/27 14:22:42;;;;;;;0.60;0.60;;;9.40;82.20;;;;;;5059502;28;20235;-81
2022/04/27 14:25:47;;;;;;;0.50;0.50;;;9.50;81.70;;;;;;5059649;28;20200;-82
2022/04/27 14:28:50;;;;;;;0.50;0.50;;;9.70;82.80;;;;;;5059076;28;20209;-82
2022/04/27 14:31:58;;;;;;;0.60;0.60;;;9.80;81.00;;;;;;5059888;28;20208;-83
2022/04/27 14:35:01;;;;;;;0.60;0.60;;;9.50;81.10;;;;;;5058604;28;20232;-81
2022/04/27 14:38:05;;;;;;;0.60;0.60;;;9.40;82.90;;;;;;5057666;28;20235;-81
2022/04/27 14:41:09;;;;;;;0.60;0.60;;;9.20;85.00;;;;;;5075377;28;20287;-80
2022/04/27 14:44:12;;;;;;;0.60;0.60;;;9.10;83.30;;;;;;5054073;28;20401;-80
2022/04/27 14:47:15;;;;;;;0.60;0.60;;;9.20;83.40;;;;;;5055338;28;20197;-81
2022/04/27 14:50:19;;;;;;;0.60;0.60;;;9.10;84.90;;;;;;5053777;28;20206;-81
2022/04/27 14:53:23;;;;;;;0.70;0.70;;;9.10;83.90;;;;;;5053755;28;20202;-80
2022/04/27 14:56:26;;;;;;;0.60;0.60;;;9.00;85.10;;;;;;5053818;28;20247;-82
2022/04/27 14:59:29;;;;;;;0.60;0.60;;;8.70;85.50;;;;;;5054245;28;20586;-85
2022/04/27 15:02:32;;;;;;;0.60;0.60;;;8.70;86.20;;;;;;5054902;28;20280;-81
2022/04/27 15:05:36;;;;;;;7.63;1.95;;;8.80;87.20;;;;;;5064681;28;20246;-81
2022/04/27 15:08:39;;;;;;;0.60;0.60;;;8.60;86.30;;;;;;5056746;28;20258;-81
2022/04/27 15:11:45;;;;;;;0.70;0.70;;;8.30;86.30;;;;;;5057204;28;20601;-83
2022/04/27 15:14:48;;;;;;;0.60;0.60;;;8.40;87.90;;;;;;5075944;28;20318;-85
2022/04/27 15:17:51;;;;;;;0.60;0.60;;;8.60;87.20;;;;;;5057656;28;20729;-85
2022/04/27 15:24:17;;;;;;;0.60;0.60;;;8.80;86.60;;;;;;5055372;28;20293;-85
2022/04/27 15:27:21;;;;;;;0.60;0.60;;;8.90;85.80;;;;;;5053787;28;20659;-84
2022/04/27 15:33:52;;;;;;;0.60;0.60;;;9.60;84.10;;;;;;4998948;28;20218;-86
2022/04/27 15:36:58;;;;;;;0.90;0.90;;;9.60;85.00;;;;;;5014859;28;20729;-85
2022/04/27 15:40:04;;;;;;;0.60;0.60;;;9.30;86.30;;;;;;5014799;28;20264;-85
2022/04/27 15:43:11;;;;;;;0.60;0.60;;;9.10;85.90;;;;;;5032123;28;20676;-84
2022/04/27 15:46:14;;;;;;;0.60;0.60;;;8.90;87.00;;;;;;5031131;28;20199;-83
2022/04/27 15:49:33;;;;;;;;;;;;;;;;;;;;;
2022/04/27 15:52:40;;;;;;;0.73;0.73;;;8.90;88.40;;;;;;5016520;28;20277;-84
2022/04/27 15:55:49;;;;;;;0.80;0.80;;;9.00;88.00;;;;;;5015237;28;20218;-83
2022/04/27 15:59:01;;;;;;;0.60;0.60;;;8.60;88.80;;;;;;5013417;28;20801;-84
2022/04/27 16:02:26;;;;;;;0.60;0.60;;;8.40;89.10;;;;;;5039202;28;20568;-84
2022/04/27 16:05:30;;;;;;;0.70;0.70;;;8.70;89.80;;;;;;5031390;28;20210;-84
2022/04/27 16:12:22;;;;;;;0.60;0.60;;;8.70;88.00;;;;;;4993025;28;20247;-83
2022/04/27 16:15:32;;;;;;;0.90;0.90;;;8.80;89.20;;;;;;5035124;28;20204;-84
2022/04/27 16:25:22;;;;;;;0.60;0.60;;;8.40;89.40;;;;;;5037746;28;20213;-83
2022/04/27 16:28:26;;;;;;;0.60;0.60;;;8.30;89.70;;;;;;5018948;28;20197;-81
2022/04/27 16:31:29;;;;;;;0.65;0.65;;;8.20;90.30;;;;;;5018483;28;20205;-81
2022/04/27 16:34:33;;;;;;;0.60;0.60;;;8.10;90.30;;;;;;5015390;28;20304;-82
2022/04/27 16:37:36;;;;;;;0.60;0.60;;;8.10;90.40;;;;;;5017331;28;20206;-81
2022/04/27 16:40:40;;;;;;;0.60;0.60;;;8.20;90.30;;;;;;5015384;28;20218;-81
2022/04/27 16:43:43;;;;;;;0.60;0.60;;;8.10;90.60;;;;;;5012828;28;20210;-81
2022/04/27 16:46:45;;;;;;;0.60;0.60;;;8.20;90.40;;;;;;5014418;28;20245;-82
2022/04/27 16:49:49;;;;;;;0.60;0.60;;;8.10;90.70;;;;;;5013071;28;20210;-82